Terminal Aerodrome Forecast
Issued by NWS

Home | Current Version | Previous Version | Text Only | Print | Product List | Glossary On
Versions: 1 2 3 4 5 6 7 8 9 10 11 12 13 14 15
000
FTUS45 KGJT 191134
TAFRIL
TAF
KRIL 191134Z 1912/2012 VRB03KT P6SM SKC
     FM192000 00000KT P6SM VCSH BKN100
     FM200000 21004KT 6SM -SHSN BKN025
     FM200300 00000KT 4SM -SN OVC015=

USA.gov is the U.S. government's official web portal to all federal, state and local government web resources and services.